createdAt,value
2023-03-17T00:00:03.406Z,8.88
2023-03-17T00:01:03.591Z,8.88
2023-03-17T00:02:05.333Z,8.91
2023-03-17T00:03:04.028Z,8.87
2023-03-17T00:04:04.290Z,8.94
2023-03-17T00:05:05.246Z,8.86
2023-03-17T00:06:04.556Z,8.84
2023-03-17T00:07:04.754Z,8.84
2023-03-17T00:08:05.294Z,8.97
2023-03-17T00:09:05.190Z,8.94
2023-03-17T00:10:05.345Z,8.86
2023-03-17T00:11:05.541Z,8.79
2023-03-17T00:12:05.711Z,8.83
2023-03-17T00:13:05.850Z,8.72
2023-03-17T00:14:06.013Z,8.75
2023-03-17T00:15:07.746Z,8.78
2023-03-17T00:16:07.340Z,8.88
2023-03-17T00:17:06.514Z,8.71
2023-03-17T00:18:06.677Z,8.83
2023-03-17T00:19:06.842Z,8.88
2023-03-17T00:20:07.022Z,8.90
2023-03-17T00:21:07.785Z,8.83
2023-03-17T00:22:07.455Z,8.93
2023-03-17T00:23:07.610Z,8.96
2023-03-17T00:24:09.260Z,8.94
2023-03-17T00:25:07.996Z,9.01
2023-03-17T00:26:08.155Z,9.04
2023-03-17T00:27:08.795Z,9.12
2023-03-17T00:28:08.804Z,8.97
2023-03-17T00:29:08.730Z,8.99
2023-03-17T00:30:09.743Z,9.01
2023-03-17T00:31:09.150Z,9.01
2023-03-17T00:32:10.246Z,9.06
2023-03-17T00:33:09.513Z,9.09
2023-03-17T00:34:10.252Z,9.15
2023-03-17T00:35:09.883Z,9.15
2023-03-17T00:36:10.018Z,9.10
2023-03-17T00:37:10.186Z,9.12
2023-03-17T00:38:11.281Z,9.20
2023-03-17T00:39:10.510Z,9.15
2023-03-17T00:40:10.632Z,9.15
2023-03-17T00:41:11.786Z,9.18
2023-03-17T00:42:11.037Z,9.25
2023-03-17T00:43:11.181Z,9.16
2023-03-17T00:44:11.308Z,9.05
2023-03-17T00:45:11.482Z,9.13
2023-03-17T00:46:11.678Z,9.02
2023-03-17T00:47:12.744Z,8.99
2023-03-17T00:48:11.999Z,8.94
2023-03-17T00:49:12.317Z,8.96
2023-03-17T00:50:13.248Z,8.93
2023-03-17T00:51:12.489Z,9.05
2023-03-17T00:52:12.643Z,9.13
2023-03-17T00:53:12.808Z,9.01
2023-03-17T00:54:12.951Z,9.15
2023-03-17T00:55:14.118Z,9.10
2023-03-17T00:56:13.331Z,9.10
2023-03-17T00:57:13.509Z,9.02
2023-03-17T00:58:13.676Z,9.04
2023-03-17T00:59:13.830Z,9.09
2023-03-17T01:00:14.009Z,9.05
2023-03-17T01:01:14.253Z,9.15
2023-03-17T01:02:14.935Z,9.13
2023-03-17T01:03:14.505Z,9.04
2023-03-17T01:04:14.648Z,9.09
2023-03-17T01:05:17.695Z,9.16
2023-03-17T01:06:15.042Z,9.06
2023-03-17T01:07:15.260Z,9.06
2023-03-17T01:08:16.286Z,9.06
2023-03-17T01:09:15.663Z,9.09
2023-03-17T01:10:15.832Z,9.06
2023-03-17T01:11:16.029Z,8.99
2023-03-17T01:12:16.752Z,9.20
2023-03-17T01:13:16.392Z,8.97
2023-03-17T01:14:16.578Z,9.12
2023-03-17T01:15:16.766Z,9.04
2023-03-17T01:16:17.007Z,9.12
2023-03-17T01:17:17.615Z,9.05
2023-03-17T01:18:17.281Z,9.04
2023-03-17T01:19:18.753Z,8.96
2023-03-17T01:20:17.796Z,9.02
2023-03-17T01:21:18.797Z,8.99
2023-03-17T01:22:18.037Z,9.05
2023-03-17T01:23:18.197Z,8.97
2023-03-17T01:24:19.315Z,8.97
2023-03-17T01:25:18.542Z,8.90
2023-03-17T01:26:18.686Z,8.91
2023-03-17T01:27:18.835Z,8.99
2023-03-17T01:28:19.802Z,9.01
2023-03-17T01:29:19.168Z,9.05
2023-03-17T01:30:19.805Z,8.94
2023-03-17T01:31:19.465Z,9.02
2023-03-17T01:32:19.642Z,9.04
2023-03-17T01:33:20.804Z,9.10
2023-03-17T01:34:20.052Z,8.99
2023-03-17T01:35:20.751Z,9.02
2023-03-17T01:36:22.190Z,9.04
2023-03-17T01:37:21.297Z,9.01
2023-03-17T01:38:21.257Z,9.12
2023-03-17T01:39:20.891Z,9.16
2023-03-17T01:40:21.090Z,9.10
2023-03-17T01:41:21.310Z,9.04
2023-03-17T01:42:22.757Z,8.99
2023-03-17T01:43:23.258Z,8.99
2023-03-17T01:44:21.776Z,9.15
2023-03-17T01:45:22.756Z,9.25
2023-03-17T01:46:22.786Z,9.15
2023-03-17T01:47:22.316Z,9.13
2023-03-17T01:48:22.488Z,9.15
2023-03-17T01:49:23.300Z,9.28
2023-03-17T01:50:22.839Z,9.24
2023-03-17T01:51:23.044Z,9.23
2023-03-17T01:52:23.262Z,9.24
2023-03-17T01:53:23.402Z,9.16
2023-03-17T01:54:24.759Z,9.13
2023-03-17T01:55:23.780Z,9.21
2023-03-17T01:56:23.934Z,9.15
2023-03-17T01:57:24.101Z,9.15
2023-03-17T01:58:24.244Z,9.02
2023-03-17T01:59:25.411Z,9.06
2023-03-17T02:00:24.569Z,8.99
2023-03-17T02:01:24.782Z,8.97
2023-03-17T02:02:24.989Z,8.91
2023-03-17T02:03:25.157Z,8.93
2023-03-17T02:04:25.320Z,8.91
2023-03-17T02:05:25.472Z,8.99
2023-03-17T02:06:25.610Z,8.87
2023-03-17T02:07:25.800Z,8.81
2023-03-17T02:08:25.934Z,8.84
2023-03-17T02:09:26.085Z,8.93
2023-03-17T02:10:26.233Z,8.87
2023-03-17T02:11:26.389Z,8.72
2023-03-17T02:12:26.644Z,8.86
2023-03-17T02:13:28.265Z,8.83
2023-03-17T02:14:28.787Z,8.79
2023-03-17T02:15:27.131Z,8.86
2023-03-17T02:16:27.304Z,8.91
2023-03-17T02:17:28.815Z,8.83
2023-03-17T02:18:29.281Z,8.79
2023-03-17T02:19:27.778Z,8.87
2023-03-17T02:20:29.846Z,8.87
2023-03-17T02:21:28.768Z,8.87
2023-03-17T02:22:28.291Z,8.91
2023-03-17T02:23:28.489Z,8.94
2023-03-17T02:24:28.669Z,8.93
2023-03-17T02:25:29.765Z,8.93
2023-03-17T02:26:29.766Z,8.93
2023-03-17T02:27:29.781Z,8.90
2023-03-17T02:28:29.316Z,8.90
2023-03-17T02:29:29.678Z,8.99
2023-03-17T02:30:30.613Z,9.01
2023-03-17T02:31:29.785Z,9.04
2023-03-17T02:32:30.092Z,9.13
2023-03-17T02:33:30.187Z,9.05
2023-03-17T02:34:31.269Z,9.12
2023-03-17T02:35:31.922Z,9.12
2023-03-17T02:36:30.778Z,9.12
2023-03-17T02:37:31.638Z,9.21
2023-03-17T02:38:32.787Z,9.20
2023-03-17T02:39:32.779Z,9.20
2023-03-17T02:40:31.917Z,9.16
2023-03-17T02:41:31.650Z,9.13
2023-03-17T02:42:32.776Z,9.15
2023-03-17T02:43:32.043Z,9.23
2023-03-17T02:44:32.194Z,9.30
2023-03-17T02:45:32.396Z,9.25
2023-03-17T02:46:32.648Z,9.21
2023-03-17T02:47:32.774Z,9.27
2023-03-17T02:48:33.777Z,9.23
2023-03-17T02:49:33.183Z,9.18
2023-03-17T02:50:33.384Z,9.23
2023-03-17T02:51:33.563Z,9.35
2023-03-17T02:52:33.752Z,9.30
2023-03-17T02:53:33.917Z,9.40
2023-03-17T02:54:34.086Z,9.38
2023-03-17T02:55:34.267Z,9.40
2023-03-17T02:56:34.468Z,9.31
2023-03-17T02:57:34.611Z,9.32
2023-03-17T02:58:34.745Z,9.30
2023-03-17T02:59:34.909Z,9.34
2023-03-17T03:00:35.774Z,9.31
2023-03-17T03:01:35.325Z,9.31
2023-03-17T03:02:35.590Z,9.38
2023-03-17T03:03:36.317Z,9.35
2023-03-17T03:04:36.651Z,9.52
2023-03-17T03:05:36.793Z,9.48
2023-03-17T03:06:36.223Z,9.50
2023-03-17T03:07:36.834Z,9.53
2023-03-17T03:08:37.301Z,9.49
2023-03-17T03:09:36.830Z,9.61
2023-03-17T03:10:38.277Z,9.57
2023-03-17T03:11:37.145Z,9.58
2023-03-17T03:12:37.328Z,9.66
2023-03-17T03:13:38.284Z,9.50
2023-03-17T03:14:37.688Z,9.58
2023-03-17T03:15:37.879Z,9.60
2023-03-17T03:16:38.035Z,9.50
2023-03-17T03:17:38.828Z,9.52
2023-03-17T03:18:39.282Z,9.58
2023-03-17T03:19:38.552Z,9.58
2023-03-17T03:20:38.705Z,9.61
2023-03-17T03:21:39.791Z,9.61
2023-03-17T03:22:39.781Z,9.56
2023-03-17T03:23:39.199Z,9.57
2023-03-17T03:24:39.386Z,9.49
2023-03-17T03:25:39.545Z,9.45
2023-03-17T03:26:39.732Z,9.48
2023-03-17T03:27:40.794Z,9.48
2023-03-17T03:28:40.838Z,9.39
2023-03-17T03:29:40.251Z,9.43
2023-03-17T03:30:40.433Z,9.25
2023-03-17T03:31:40.581Z,9.23
2023-03-17T03:32:41.839Z,9.32
2023-03-17T03:33:40.986Z,9.35
2023-03-17T03:34:41.786Z,9.28
2023-03-17T03:35:41.353Z,9.31
2023-03-17T03:36:42.290Z,9.31
2023-03-17T03:37:42.296Z,9.35
2023-03-17T03:38:41.860Z,9.30
2023-03-17T03:39:42.800Z,9.30
2023-03-17T03:40:42.209Z,9.39
2023-03-17T03:41:42.401Z,9.23
2023-03-17T03:42:42.605Z,9.27
2023-03-17T03:43:42.801Z,9.30
2023-03-17T03:44:43.789Z,9.31
2023-03-17T03:45:43.241Z,9.31
2023-03-17T03:46:43.482Z,9.23
2023-03-17T03:47:43.565Z,9.20
2023-03-17T03:48:43.756Z,9.23
2023-03-17T03:49:43.930Z,9.18
2023-03-17T03:50:44.121Z,9.28
2023-03-17T03:51:45.299Z,9.23
2023-03-17T03:52:44.436Z,9.25
2023-03-17T03:53:45.288Z,9.21
2023-03-17T03:54:44.842Z,9.20
2023-03-17T03:55:45.020Z,9.15
2023-03-17T03:56:45.336Z,9.15
2023-03-17T03:57:45.501Z,9.16
2023-03-17T03:58:46.586Z,9.13
2023-03-17T03:59:45.740Z,9.10
2023-03-17T04:00:45.935Z,9.13
2023-03-17T04:01:46.797Z,9.13
2023-03-17T04:02:46.357Z,9.20
2023-03-17T04:03:46.542Z,9.15
2023-03-17T04:04:46.746Z,9.15
2023-03-17T04:05:46.986Z,9.18
2023-03-17T04:06:47.172Z,9.25
2023-03-17T04:07:47.327Z,9.21
2023-03-17T04:08:48.329Z,9.28
2023-03-17T04:09:47.598Z,9.21
2023-03-17T04:10:47.784Z,9.30
2023-03-17T04:11:47.963Z,9.28
2023-03-17T04:12:48.796Z,9.30
2023-03-17T04:13:48.317Z,9.18
2023-03-17T04:14:49.792Z,9.23
2023-03-17T04:15:48.712Z,9.21
2023-03-17T04:16:48.926Z,9.15
2023-03-17T04:17:49.113Z,9.25
2023-03-17T04:18:49.352Z,9.09
2023-03-17T04:19:49.428Z,9.20
2023-03-17T04:20:50.339Z,9.13
2023-03-17T04:21:52.359Z,9.24
2023-03-17T04:22:49.985Z,9.30
2023-03-17T04:23:50.833Z,9.18
2023-03-17T04:24:51.369Z,9.32
2023-03-17T04:25:51.332Z,9.30
2023-03-17T04:26:52.302Z,9.34
2023-03-17T04:27:51.350Z,9.43
2023-03-17T04:28:51.154Z,9.52
2023-03-17T04:29:52.293Z,9.34
2023-03-17T04:30:51.563Z,9.48
2023-03-17T04:31:52.952Z,9.43
2023-03-17T04:32:51.882Z,9.57
2023-03-17T04:33:52.062Z,9.56
2023-03-17T04:34:52.221Z,9.58
2023-03-17T04:35:52.425Z,9.58
2023-03-17T04:36:52.587Z,9.56
2023-03-17T04:37:53.340Z,9.57
2023-03-17T04:38:53.802Z,9.49
2023-03-17T04:39:53.182Z,9.57
2023-03-17T04:40:53.387Z,9.52
2023-03-17T04:41:54.519Z,9.48
2023-03-17T04:42:53.768Z,9.52
2023-03-17T04:43:53.916Z,9.56
2023-03-17T04:44:54.065Z,9.64
2023-03-17T04:45:54.229Z,9.56
2023-03-17T04:46:55.297Z,9.52
2023-03-17T04:47:54.861Z,9.45
2023-03-17T04:48:54.856Z,9.46
2023-03-17T04:49:56.166Z,9.45
2023-03-17T04:50:55.139Z,9.52
2023-03-17T04:51:55.305Z,9.48
2023-03-17T04:52:56.454Z,9.45
2023-03-17T04:53:56.339Z,9.39
2023-03-17T04:54:55.753Z,9.40
2023-03-17T04:55:55.896Z,9.43
2023-03-17T04:56:56.039Z,9.45
2023-03-17T04:57:56.229Z,9.30
2023-03-17T04:58:56.387Z,9.34
2023-03-17T04:59:57.800Z,9.28
2023-03-17T05:00:57.893Z,9.31
2023-03-17T05:01:57.380Z,9.35
2023-03-17T05:02:57.801Z,9.43
2023-03-17T05:03:57.199Z,9.39
2023-03-17T05:04:57.353Z,9.45
2023-03-17T05:05:57.496Z,9.38
2023-03-17T05:06:57.646Z,9.48
2023-03-17T05:07:57.802Z,9.43
2023-03-17T05:08:57.965Z,9.42
2023-03-17T05:09:59.306Z,9.32
2023-03-17T05:10:58.330Z,9.40
2023-03-17T05:11:58.529Z,9.43
2023-03-17T05:12:58.692Z,9.39
2023-03-17T05:13:58.849Z,9.31
2023-03-17T05:14:59.021Z,9.32
2023-03-17T05:15:59.205Z,9.35
2023-03-17T05:16:59.376Z,9.38
2023-03-17T05:17:59.564Z,9.42
2023-03-17T05:19:00.322Z,9.38
2023-03-17T05:19:59.967Z,9.39
2023-03-17T05:21:00.139Z,9.46
2023-03-17T05:22:21.291Z,9.35
2023-03-17T05:23:01.339Z,9.32
2023-03-17T05:24:01.309Z,9.31
2023-03-17T05:25:01.811Z,9.45
2023-03-17T05:26:01.188Z,9.35
2023-03-17T05:27:01.358Z,9.27
2023-03-17T05:28:01.546Z,9.30
2023-03-17T05:29:01.717Z,9.28
2023-03-17T05:30:02.807Z,9.30
2023-03-17T05:31:02.909Z,9.27
2023-03-17T05:32:02.213Z,9.24
2023-03-17T05:33:03.424Z,9.23
2023-03-17T05:34:03.314Z,9.23
2023-03-17T05:35:02.720Z,9.13
2023-03-17T05:36:02.923Z,9.16
2023-03-17T05:37:03.103Z,9.16
2023-03-17T05:38:03.272Z,9.23
2023-03-17T05:39:03.462Z,9.16
2023-03-17T05:40:03.656Z,9.21
2023-03-17T05:41:03.883Z,9.16
2023-03-17T05:42:25.816Z,9.18
2023-03-17T05:43:05.308Z,9.12
2023-03-17T05:44:04.471Z,9.25
2023-03-17T05:45:05.342Z,9.30
2023-03-17T05:46:04.946Z,9.28
2023-03-17T05:47:06.821Z,9.28
2023-03-17T05:48:05.335Z,9.20
2023-03-17T05:49:05.869Z,9.34
2023-03-17T05:50:05.651Z,9.25
2023-03-17T05:51:05.842Z,9.25
2023-03-17T05:52:05.989Z,9.32
2023-03-17T05:53:06.375Z,9.25
2023-03-17T05:54:06.288Z,9.24
2023-03-17T05:55:07.844Z,9.20
2023-03-17T05:56:06.606Z,9.20
2023-03-17T05:57:06.777Z,9.25
2023-03-17T05:58:06.968Z,9.28
2023-03-17T05:59:07.145Z,9.30
2023-03-17T06:00:07.875Z,9.30
2023-03-17T06:01:08.377Z,9.25
2023-03-17T06:02:07.639Z,9.21
2023-03-17T06:03:07.931Z,9.24
2023-03-17T06:04:08.845Z,9.20
2023-03-17T06:05:08.261Z,9.23
2023-03-17T06:06:08.440Z,9.18
2023-03-17T06:07:08.596Z,9.20
2023-03-17T06:08:08.871Z,9.13
2023-03-17T06:09:08.904Z,9.15
2023-03-17T06:10:09.061Z,9.16
2023-03-17T06:11:11.330Z,9.21
2023-03-17T06:12:10.189Z,9.18
2023-03-17T06:13:10.812Z,9.12
2023-03-17T06:14:10.787Z,9.28
2023-03-17T06:15:10.045Z,9.21
2023-03-17T06:16:10.252Z,9.20
2023-03-17T06:17:10.423Z,9.16
2023-03-17T06:18:10.597Z,9.13
2023-03-17T06:19:10.787Z,9.20
2023-03-17T06:20:10.949Z,9.15
2023-03-17T06:21:11.829Z,9.18
2023-03-17T06:22:11.339Z,9.24
2023-03-17T06:23:11.517Z,9.23
2023-03-17T06:24:11.714Z,9.34
2023-03-17T06:25:12.829Z,9.31
2023-03-17T06:26:12.090Z,9.52
2023-03-17T06:27:12.247Z,9.50
2023-03-17T06:28:13.836Z,9.52
2023-03-17T06:29:12.669Z,9.46
2023-03-17T06:30:13.857Z,9.45
2023-03-17T06:31:13.040Z,9.50
2023-03-17T06:32:20.455Z,9.58
2023-03-17T06:33:17.199Z,9.56
2023-03-17T06:34:13.534Z,9.50
2023-03-17T06:35:13.716Z,9.63
2023-03-17T06:36:14.865Z,9.57
2023-03-17T06:37:14.852Z,9.64
2023-03-17T06:38:14.368Z,9.53
2023-03-17T06:39:15.366Z,9.60
2023-03-17T06:40:14.647Z,9.70
2023-03-17T06:41:15.838Z,9.75
2023-03-17T06:42:16.703Z,9.91
2023-03-17T06:43:15.190Z,10.03
2023-03-17T06:44:15.375Z,10.06
2023-03-17T06:45:18.212Z,10.24
2023-03-17T06:46:15.912Z,10.33
2023-03-17T06:47:15.937Z,10.34
2023-03-17T06:48:16.832Z,10.21
2023-03-17T06:49:17.881Z,10.12
2023-03-17T06:50:16.374Z,10.06
2023-03-17T06:51:16.574Z,10.06
2023-03-17T06:52:17.832Z,10.14
2023-03-17T06:53:17.886Z,10.28
2023-03-17T06:54:17.146Z,10.37
2023-03-17T06:55:17.333Z,10.44
2023-03-17T06:56:29.424Z,10.65
2023-03-17T06:57:19.757Z,10.56
2023-03-17T06:58:17.884Z,10.78
2023-03-17T06:59:18.834Z,10.91
2023-03-17T07:00:18.272Z,10.91
2023-03-17T07:01:18.531Z,10.86
2023-03-17T07:02:18.587Z,11.17
2023-03-17T07:03:19.379Z,11.34
2023-03-17T07:04:18.939Z,11.44
2023-03-17T07:05:19.180Z,11.65
2023-03-17T07:06:20.841Z,11.87
2023-03-17T07:07:19.509Z,11.75
2023-03-17T07:08:20.393Z,12.19
2023-03-17T07:09:20.338Z,12.38
2023-03-17T07:10:20.038Z,12.48
2023-03-17T07:11:21.340Z,12.24
2023-03-17T07:12:21.356Z,12.52
2023-03-17T07:13:20.582Z,12.71
2023-03-17T07:14:21.344Z,12.52
2023-03-17T07:15:20.999Z,12.67
2023-03-17T07:16:21.204Z,12.75
2023-03-17T07:17:21.313Z,12.70
2023-03-17T07:18:21.529Z,12.71
2023-03-17T07:19:22.389Z,12.63
2023-03-17T07:20:21.957Z,12.60
2023-03-17T07:21:22.149Z,12.67
2023-03-17T07:22:22.364Z,12.74
2023-03-17T07:23:23.370Z,12.52
2023-03-17T07:24:23.344Z,12.64
2023-03-17T07:25:23.840Z,12.67
2023-03-17T07:26:23.891Z,12.69
2023-03-17T07:27:23.287Z,12.79
2023-03-17T07:28:23.389Z,12.79
2023-03-17T07:29:23.610Z,13.12
2023-03-17T07:30:23.848Z,13.11
2023-03-17T07:31:24.117Z,13.11
2023-03-17T07:32:24.187Z,13.00
2023-03-17T07:33:24.384Z,13.00
2023-03-17T07:34:24.591Z,13.00
2023-03-17T07:35:24.865Z,13.14
2023-03-17T07:36:24.953Z,13.17
2023-03-17T07:37:25.064Z,13.47
2023-03-17T07:38:25.212Z,13.80
2023-03-17T07:39:25.380Z,13.89
2023-03-17T07:40:25.587Z,14.01
2023-03-17T07:41:26.348Z,14.21
2023-03-17T07:42:26.888Z,14.28
2023-03-17T07:43:26.174Z,14.35
2023-03-17T07:44:26.350Z,14.61
2023-03-17T07:45:27.397Z,14.42
2023-03-17T07:46:26.797Z,14.62
2023-03-17T07:47:27.849Z,14.60
2023-03-17T07:48:27.087Z,14.90
2023-03-17T07:49:40.400Z,14.98
2023-03-17T07:50:29.690Z,14.65
2023-03-17T07:51:27.792Z,14.83
2023-03-17T07:52:28.010Z,14.86
2023-03-17T07:53:28.887Z,14.80
2023-03-17T07:54:29.285Z,14.49
2023-03-17T07:55:28.791Z,14.69
2023-03-17T07:56:28.833Z,14.83
2023-03-17T07:57:29.915Z,14.78
2023-03-17T07:58:29.214Z,14.61
2023-03-17T07:59:29.921Z,14.47
2023-03-17T08:00:30.091Z,14.71
2023-03-17T08:01:30.357Z,14.67
2023-03-17T08:02:30.062Z,14.74
2023-03-17T08:03:30.908Z,14.95
2023-03-17T08:04:30.869Z,14.99
2023-03-17T08:05:31.357Z,15.17
2023-03-17T08:06:30.623Z,14.90
2023-03-17T08:07:30.796Z,14.94
2023-03-17T08:08:31.038Z,15.43
2023-03-17T08:09:31.863Z,15.70
2023-03-17T08:10:31.669Z,15.54
2023-03-17T08:11:31.618Z,15.46
2023-03-17T08:12:31.851Z,14.93
2023-03-17T08:13:32.051Z,14.37
2023-03-17T08:14:32.214Z,14.37
2023-03-17T08:15:32.441Z,14.71
2023-03-17T08:16:32.732Z,14.72
2023-03-17T08:17:34.384Z,14.93
2023-03-17T08:18:32.968Z,15.08
2023-03-17T08:19:33.158Z,14.84
2023-03-17T08:20:33.861Z,14.78
2023-03-17T08:21:33.509Z,15.06
2023-03-17T08:22:34.402Z,15.33
2023-03-17T08:23:33.936Z,15.33
2023-03-17T08:24:34.731Z,15.31
2023-03-17T08:25:36.385Z,15.05
2023-03-17T08:26:34.437Z,14.72
2023-03-17T08:27:35.406Z,14.25
2023-03-17T08:28:34.889Z,14.10
2023-03-17T08:29:35.022Z,14.29
2023-03-17T08:30:35.659Z,14.29
2023-03-17T08:31:36.385Z,14.24
2023-03-17T08:32:37.457Z,14.19
2023-03-17T08:33:36.444Z,13.81
2023-03-17T08:34:35.736Z,13.49
2023-03-17T08:35:35.992Z,13.32
2023-03-17T08:36:36.083Z,13.30
2023-03-17T08:37:36.874Z,13.00
2023-03-17T08:38:37.377Z,13.03
2023-03-17T08:39:37.421Z,13.12
2023-03-17T08:40:36.838Z,13.33
2023-03-17T08:41:37.070Z,13.32
2023-03-17T08:42:37.255Z,13.58
2023-03-17T08:43:37.442Z,13.67
2023-03-17T08:44:37.645Z,13.59
2023-03-17T08:45:37.830Z,13.54
2023-03-17T08:46:38.740Z,13.32
2023-03-17T08:47:38.877Z,13.38
2023-03-17T08:48:38.292Z,13.46
2023-03-17T08:49:38.499Z,13.61
2023-03-17T08:50:38.700Z,13.67
2023-03-17T08:51:38.880Z,13.98
2023-03-17T08:52:40.896Z,14.24
2023-03-17T08:53:39.273Z,14.04
2023-03-17T08:54:40.418Z,14.16
2023-03-17T08:55:40.424Z,14.35
2023-03-17T08:56:39.720Z,14.54
2023-03-17T08:57:39.892Z,14.68
2023-03-17T08:58:40.165Z,15.02
2023-03-17T08:59:41.883Z,15.23
2023-03-17T09:00:40.883Z,15.41
2023-03-17T09:01:40.574Z,15.08
2023-03-17T09:02:40.804Z,14.72
2023-03-17T09:03:41.039Z,15.03
2023-03-17T09:04:42.381Z,15.28
2023-03-17T09:05:41.366Z,14.90
2023-03-17T09:07:01.243Z,15.15
2023-03-17T09:07:44.493Z,15.24
2023-03-17T09:08:42.387Z,15.27
2023-03-17T09:09:43.385Z,15.12
2023-03-17T09:10:44.264Z,15.13
2023-03-17T09:11:43.434Z,14.81
2023-03-17T09:12:42.586Z,14.81
2023-03-17T09:13:42.791Z,14.74
2023-03-17T09:14:44.920Z,14.90
2023-03-17T09:15:44.213Z,15.03
2023-03-17T09:16:43.389Z,15.06
2023-03-17T09:17:43.596Z,15.24
2023-03-17T09:18:43.761Z,15.51
2023-03-17T09:19:44.001Z,15.63
2023-03-17T09:20:44.180Z,15.79
2023-03-17T09:21:44.354Z,16.06
2023-03-17T09:22:44.546Z,15.97
2023-03-17T09:23:45.430Z,15.89
2023-03-17T09:24:44.838Z,15.64
2023-03-17T09:25:45.892Z,15.56
2023-03-17T09:26:45.897Z,15.48
2023-03-17T09:27:45.897Z,15.41
2023-03-17T09:28:46.402Z,15.13
2023-03-17T09:29:46.258Z,14.95
2023-03-17T09:30:45.919Z,14.56
2023-03-17T09:31:46.130Z,14.44
2023-03-17T09:32:46.400Z,14.34
2023-03-17T09:33:46.454Z,14.43
2023-03-17T09:34:51.341Z,14.50
2023-03-17T09:35:46.922Z,14.47
2023-03-17T09:36:47.891Z,14.57
2023-03-17T09:37:47.169Z,14.61
2023-03-17T09:38:47.337Z,14.65
2023-03-17T09:39:47.497Z,14.65
2023-03-17T09:40:47.664Z,14.68
2023-03-17T09:41:47.948Z,14.78
2023-03-17T09:42:48.015Z,14.84
2023-03-17T09:43:48.899Z,14.95
2023-03-17T09:45:09.408Z,15.02
2023-03-17T09:45:48.641Z,15.08
2023-03-17T09:46:48.870Z,15.20
2023-03-17T09:47:50.908Z,15.27
2023-03-17T09:48:49.182Z,15.24
2023-03-17T09:49:49.392Z,15.19
2023-03-17T09:50:49.621Z,14.98
2023-03-17T09:51:50.922Z,15.06
2023-03-17T09:52:51.457Z,15.08
2023-03-17T09:53:51.177Z,15.28
2023-03-17T09:54:51.904Z,15.35
2023-03-17T09:55:51.406Z,15.05
2023-03-17T09:56:50.953Z,15.21
2023-03-17T09:57:52.271Z,15.57
2023-03-17T09:58:51.389Z,15.51
2023-03-17T09:59:52.252Z,15.39
2023-03-17T10:00:52.918Z,15.33
2023-03-17T10:01:51.703Z,15.45
2023-03-17T10:02:52.270Z,15.54
2023-03-17T10:03:52.468Z,15.68
2023-03-17T10:04:52.278Z,15.88
2023-03-17T10:05:53.140Z,15.85
2023-03-17T10:06:52.600Z,15.84
2023-03-17T10:07:52.783Z,15.84
2023-03-17T10:08:52.947Z,15.97
2023-03-17T10:09:53.908Z,16.00
2023-03-17T10:10:53.910Z,16.03
2023-03-17T10:11:53.435Z,16.15
2023-03-17T10:12:53.601Z,16.18
2023-03-17T10:13:53.749Z,16.18
2023-03-17T10:14:56.417Z,16.04
2023-03-17T10:15:54.506Z,16.00
2023-03-17T10:16:54.181Z,16.11
2023-03-17T10:17:55.907Z,16.16
2023-03-17T10:18:54.518Z,16.22
2023-03-17T10:19:56.408Z,16.22
2023-03-17T10:20:56.406Z,16.27
2023-03-17T10:21:55.023Z,16.58
2023-03-17T10:22:55.204Z,16.38
2023-03-17T10:23:55.366Z,16.11
2023-03-17T10:24:55.538Z,16.03
2023-03-17T10:25:56.423Z,16.11
2023-03-17T10:26:56.915Z,15.86
2023-03-17T10:27:56.106Z,15.59
2023-03-17T10:28:56.285Z,15.46
2023-03-17T10:29:56.483Z,15.59
2023-03-17T10:30:56.690Z,15.45
2023-03-17T10:31:58.564Z,15.41
2023-03-17T10:32:58.145Z,15.26
2023-03-17T10:33:57.391Z,15.38
2023-03-17T10:34:58.468Z,15.35
2023-03-17T10:35:58.457Z,15.41
2023-03-17T10:36:58.002Z,15.51
2023-03-17T10:38:13.475Z,15.51
2023-03-17T10:39:00.336Z,15.57
2023-03-17T10:39:58.480Z,15.63
2023-03-17T10:40:58.690Z,15.68
2023-03-17T10:41:59.425Z,15.93
2023-03-17T10:42:59.957Z,15.99
2023-03-17T10:43:59.915Z,16.03
2023-03-17T10:44:59.457Z,15.99
2023-03-17T10:45:59.641Z,16.18
2023-03-17T10:46:59.841Z,16.22
2023-03-17T10:48:00.928Z,16.44
2023-03-17T10:49:00.205Z,16.55
2023-03-17T10:50:00.363Z,16.52
2023-03-17T10:51:01.460Z,16.70
2023-03-17T10:52:01.425Z,16.65
2023-03-17T10:53:00.938Z,16.50
2023-03-17T10:54:01.116Z,16.68
2023-03-17T10:55:01.280Z,16.60
2023-03-17T10:56:02.444Z,16.56
2023-03-17T10:57:03.438Z,16.52
2023-03-17T10:58:02.428Z,16.56
2023-03-17T10:59:01.935Z,16.49
2023-03-17T11:00:02.084Z,16.44
2023-03-17T11:01:02.245Z,16.30
2023-03-17T11:02:02.438Z,16.52
2023-03-17T11:03:02.592Z,16.48
2023-03-17T11:04:02.851Z,16.35
2023-03-17T11:05:03.424Z,16.49
2023-03-17T11:06:03.073Z,16.58
2023-03-17T11:07:03.236Z,16.77
2023-03-17T11:08:03.929Z,16.83
2023-03-17T11:09:03.974Z,16.70
2023-03-17T11:10:03.769Z,16.60
2023-03-17T11:11:03.930Z,16.50
2023-03-17T11:12:04.977Z,16.41
2023-03-17T11:13:04.245Z,16.41
2023-03-17T11:14:04.420Z,16.53
2023-03-17T11:15:05.936Z,16.65
2023-03-17T11:16:04.861Z,16.67
2023-03-17T11:17:05.023Z,16.50
2023-03-17T11:18:05.205Z,16.34
2023-03-17T11:19:05.370Z,16.41
2023-03-17T11:20:06.436Z,16.34
2023-03-17T11:21:06.446Z,16.50
2023-03-17T11:22:05.880Z,16.59
2023-03-17T11:23:07.944Z,16.58
2023-03-17T11:24:06.205Z,16.67
2023-03-17T11:25:06.421Z,16.73
2023-03-17T11:26:06.601Z,16.55
2023-03-17T11:27:06.832Z,16.62
2023-03-17T11:28:07.041Z,16.59
2023-03-17T11:29:07.225Z,16.56
2023-03-17T11:30:07.445Z,16.58
2023-03-17T11:31:07.668Z,16.65
2023-03-17T11:32:07.888Z,16.77
2023-03-17T11:33:08.095Z,16.85
2023-03-17T11:34:08.174Z,16.92
2023-03-17T11:35:08.386Z,17.13
2023-03-17T11:36:08.619Z,17.26
2023-03-17T11:37:09.941Z,17.30
2023-03-17T11:38:08.993Z,17.30
2023-03-17T11:39:09.808Z,17.20
2023-03-17T11:40:09.959Z,17.17
2023-03-17T11:41:09.409Z,17.22
2023-03-17T11:42:09.603Z,17.18
2023-03-17T11:43:09.802Z,17.17
2023-03-17T11:44:10.480Z,17.26
2023-03-17T11:45:10.818Z,17.33
2023-03-17T11:46:11.539Z,17.41
2023-03-17T11:47:10.464Z,17.43
2023-03-17T11:48:11.487Z,17.22
2023-03-17T11:49:10.862Z,17.28
2023-03-17T11:50:11.051Z,17.18
2023-03-17T11:51:11.995Z,17.38
2023-03-17T11:52:11.394Z,17.35
2023-03-17T11:53:11.572Z,17.32
2023-03-17T11:54:12.005Z,17.26
2023-03-17T11:55:11.934Z,17.33
2023-03-17T11:56:12.099Z,17.28
2023-03-17T11:57:12.811Z,17.28
2023-03-17T11:58:12.453Z,17.15
2023-03-17T11:59:13.501Z,17.20
2023-03-17T12:00:12.994Z,17.30
2023-03-17T12:01:13.443Z,17.30
2023-03-17T12:02:13.090Z,17.25
2023-03-17T12:03:13.305Z,17.30
2023-03-17T12:04:14.034Z,17.22
2023-03-17T12:05:14.443Z,17.44
2023-03-17T12:06:14.448Z,17.46
2023-03-17T12:07:13.943Z,17.33
2023-03-17T12:08:14.077Z,17.13
2023-03-17T12:09:14.982Z,17.14
2023-03-17T12:10:14.658Z,17.08
2023-03-17T12:11:14.591Z,17.13
2023-03-17T12:12:16.044Z,17.00
2023-03-17T12:13:15.890Z,17.03
2023-03-17T12:14:15.118Z,17.18
2023-03-17T12:15:16.265Z,17.11
2023-03-17T12:16:15.413Z,17.13
2023-03-17T12:17:16.009Z,17.17
2023-03-17T12:18:17.448Z,17.26
2023-03-17T12:19:15.918Z,17.26
2023-03-17T12:20:17.069Z,17.15
2023-03-17T12:21:16.988Z,17.20
2023-03-17T12:22:16.513Z,17.26
2023-03-17T12:23:16.689Z,17.18
2023-03-17T12:24:17.340Z,17.25
2023-03-17T12:25:16.972Z,17.43
2023-03-17T12:26:17.141Z,17.40
2023-03-17T12:27:17.313Z,17.55
2023-03-17T12:28:17.504Z,17.47
2023-03-17T12:29:17.734Z,17.40
2023-03-17T12:30:17.903Z,17.32
2023-03-17T12:31:18.062Z,17.36
2023-03-17T12:32:18.264Z,17.46
2023-03-17T12:33:18.502Z,17.54
2023-03-17T12:34:18.669Z,17.67
2023-03-17T12:35:19.489Z,17.70
2023-03-17T12:36:19.011Z,17.59
2023-03-17T12:37:20.449Z,17.41
2023-03-17T12:38:19.360Z,17.47
2023-03-17T12:39:19.538Z,17.38
2023-03-17T12:40:19.718Z,17.33
2023-03-17T12:41:19.877Z,17.30
2023-03-17T12:42:20.071Z,17.33
2023-03-17T12:43:20.507Z,17.17
2023-03-17T12:44:20.399Z,16.96
2023-03-17T12:45:20.579Z,16.90
2023-03-17T12:46:21.461Z,16.75
2023-03-17T12:47:21.446Z,16.95
2023-03-17T12:48:21.514Z,16.96
2023-03-17T12:49:21.218Z,17.11
2023-03-17T12:50:22.063Z,17.11
2023-03-17T12:51:22.461Z,17.10
2023-03-17T12:52:23.321Z,16.98
2023-03-17T12:53:22.502Z,16.99
2023-03-17T12:54:22.510Z,16.96
2023-03-17T12:55:22.323Z,17.10
2023-03-17T12:56:22.489Z,17.08
2023-03-17T12:57:22.659Z,17.13
2023-03-17T12:58:24.304Z,17.10
2023-03-17T12:59:23.071Z,17.25
2023-03-17T13:00:24.017Z,17.30
2023-03-17T13:01:24.013Z,17.36
2023-03-17T13:02:24.461Z,17.51
2023-03-17T13:03:24.356Z,17.50
2023-03-17T13:04:26.849Z,17.50
2023-03-17T13:05:25.071Z,17.44
2023-03-17T13:06:24.207Z,17.47
2023-03-17T13:07:25.005Z,17.18